Time;durP1;ratioP1;P1;durP2;ratioP2;P2;SDS_P1;SDS_P2;PMS_P1;PMS_P2;Temp;Humidity;BMP_temperature;BMP_pressure;BME280_temperature;BME280_humidity;BME280_pressure;Samples;Min_cycle;Max_cycle;Signal;HPM_P1;HPM_P2
2022/11/03 00:00:21;;;;;;;4.63;3.90;;;;;;;11.49;72.11;96071.47;5035466;28;20256;-80
2022/11/03 00:02:48;;;;;;;5.77;4.20;;;;;;;11.51;72.55;96060.97;5035894;28;20202;-80
2022/11/03 00:08:08;;;;;;;7.00;4.57;;;;;;;11.38;72.57;96056.34;5010627;28;20616;-79
2022/11/03 00:10:34;;;;;;;6.77;4.20;;;;;;;11.29;72.57;96059.97;5035185;28;20238;-80
2022/11/03 00:13:01;;;;;;;6.90;4.63;;;;;;;11.21;72.70;96052.25;5036074;28;20209;-80
2022/11/03 00:15:27;;;;;;;6.80;4.47;;;;;;;11.20;73.04;96042.91;5035641;28;20944;-80
2022/11/03 00:17:54;;;;;;;8.23;4.63;;;;;;;11.15;73.36;96042.66;5046579;28;20228;-80
2022/11/03 00:20:21;;;;;;;7.43;4.43;;;;;;;11.01;74.12;96034.63;5049423;28;20221;-80
2022/11/03 00:22:48;;;;;;;8.40;4.20;;;;;;;10.87;75.23;96027.63;5055970;28;20197;-80
2022/11/03 00:25:14;;;;;;;7.90;4.63;;;;;;;10.78;76.22;96025.22;5055626;28;20205;-80
2022/11/03 00:27:41;;;;;;;5.57;4.33;;;;;;;10.91;75.37;96017.78;5054510;28;20201;-79
2022/11/03 00:30:08;;;;;;;5.33;4.27;;;;;;;10.93;75.58;96019.22;5037992;28;20229;-79
2022/11/03 00:32:35;;;;;;;4.70;4.13;;;;;;;11.07;75.21;96026.25;5035408;28;20202;-80
2022/11/03 00:35:01;;;;;;;6.87;4.50;;;;;;;11.10;74.79;96024.31;5035779;28;20202;-80
2022/11/03 00:37:29;;;;;;;7.17;4.23;;;;;;;11.19;74.14;96016.34;5054747;28;20228;-80
2022/11/03 00:39:55;;;;;;;7.10;5.17;;;;;;;11.25;74.17;96014.88;5054372;28;20240;-80
2022/11/03 00:42:22;;;;;;;8.20;5.57;;;;;;;11.27;73.93;96013.72;5054962;28;20205;-79
2022/11/03 00:44:48;;;;;;;6.97;5.33;;;;;;;11.34;73.76;96013.88;5055408;28;20628;-80
2022/11/03 00:47:15;;;;;;;5.87;5.27;;;;;;;11.29;73.69;96004.06;5054996;28;20202;-82
2022/11/03 00:49:41;;;;;;;8.30;5.70;;;;;;;11.37;73.41;96008.34;5054435;28;20237;-80
2022/11/03 00:52:08;;;;;;;8.53;6.47;;;;;;;11.43;73.24;96003.31;5054063;28;20197;-80
2022/11/03 00:54:36;;;;;;;9.47;6.60;;;;;;;11.45;72.72;95995.41;5055644;28;20695;-80
2022/11/03 00:57:02;;;;;;;14.57;9.60;;;;;;;11.38;72.96;95991.91;5052783;28;20205;-80
2022/11/03 00:59:28;;;;;;;11.50;9.40;;;;;;;11.34;73.28;95995.81;5053034;28;20218;-80
2022/11/03 01:01:55;;;;;;;11.60;10.07;;;;;;;11.19;73.91;95993.16;5056141;28;20197;-80
2022/11/03 01:07:06;;;;;;;10.47;8.83;;;;;;;11.21;74.01;95992.97;5055885;28;20205;-80
2022/11/03 01:09:37;;;;;;;10.37;8.20;;;;;;;11.25;73.65;95983.94;5054928;28;20257;-80
2022/11/03 01:12:06;;;;;;;10.20;7.60;;;;;;;11.23;73.76;95981.53;5055358;28;20665;-80
2022/11/03 01:14:35;;;;;;;8.93;7.33;;;;;;;11.28;73.49;95976.69;5047361;28;20209;-80
2022/11/03 01:17:02;;;;;;;10.40;7.27;;;;;;;11.32;73.78;95980.53;5054064;28;20205;-80
2022/11/03 01:19:28;;;;;;;9.20;6.90;;;;;;;11.37;73.55;95975.63;5055626;28;20232;-80
2022/11/03 01:21:55;;;;;;;7.20;6.03;;;;;;;11.43;73.62;95982.69;5054929;28;20211;-80
2022/11/03 01:24:22;;;;;;;8.97;6.40;;;;;;;11.47;73.66;95982.34;5054639;28;20209;-80
2022/11/03 01:26:50;;;;;;;9.53;6.40;;;;;;;11.46;73.73;95981.56;5054994;28;20205;-80
2022/11/03 01:29:16;;;;;;;9.13;5.50;;;;;;;11.51;73.22;95983.63;5043729;28;20214;-80
2022/11/03 01:31:43;;;;;;;7.27;5.13;;;;;;;11.38;72.93;95981.59;5036145;28;20202;-80
2022/11/03 01:34:16;;;;;;;7.23;4.90;;;;;;;11.37;73.04;95983.38;5037771;28;20198;-80
2022/11/03 01:36:43;;;;;;;7.90;4.73;;;;;;;11.28;72.68;95978.44;5052459;28;20216;-80
2022/11/03 01:39:11;;;;;;;6.63;4.60;;;;;;;11.11;73.61;95971.78;5057005;28;20225;-79
2022/11/03 01:41:38;;;;;;;7.33;4.47;;;;;;;10.93;74.53;95978.00;5057906;28;20283;-80
2022/11/03 01:44:34;;;;;;;6.33;4.30;;;;;;;10.86;75.33;95977.06;5058164;28;20212;-79
2022/11/03 01:47:11;;;;;;;5.73;4.33;;;;;;;10.93;74.54;95965.13;5058710;28;20206;-79
2022/11/03 01:49:44;;;;;;;6.37;4.33;;;;;;;11.02;73.96;95969.25;5057652;28;20221;-80
2022/11/03 01:52:16;;;;;;;6.33;4.67;;;;;;;10.97;73.64;95965.56;5057475;28;20197;-80
2022/11/03 01:54:46;;;;;;;9.30;4.73;;;;;;;10.90;73.54;95959.50;5057690;28;20197;-80
2022/11/03 01:57:19;;;;;;;7.13;4.60;;;;;;;10.96;73.89;95964.78;5056325;28;20205;-79
2022/11/03 01:59:49;;;;;;;7.10;4.07;;;;;;;10.99;73.28;95956.69;5057113;28;20301;-80
2022/11/03 02:02:15;;;;;;;5.60;4.20;;;;;;;11.02;73.26;95956.38;5056661;28;20692;-80
2022/11/03 02:04:43;;;;;;;6.83;4.40;;;;;;;11.04;73.03;95956.19;5056664;28;20202;-80
2022/11/03 02:07:19;;;;;;;6.27;4.57;;;;;;;10.99;72.70;95950.75;5057454;28;20205;-80
2022/11/03 02:09:45;;;;;;;6.57;4.40;;;;;;;10.95;72.81;95944.34;5056057;28;20857;-81
2022/11/03 02:12:15;;;;;;;5.43;4.13;;;;;;;10.77;73.06;95944.59;5048603;28;20200;-82
2022/11/03 02:14:45;;;;;;;11.73;4.40;;;;;;;10.70;73.68;95931.59;5057642;28;20580;-80
2022/11/03 02:17:14;;;;;;;6.20;4.77;;;;;;;10.73;73.76;95940.75;5056953;28;20201;-79
2022/11/03 02:19:45;;;;;;;5.40;4.40;;;;;;;10.71;73.67;95943.50;5056718;28;20237;-80
2022/11/03 02:22:29;;;;;;;6.13;4.37;;;;;;;10.70;73.80;95928.22;5056386;28;20694;-80
2022/11/03 02:25:03;;;;;;;8.07;4.57;;;;;;;10.67;73.89;95924.19;5056840;28;20309;-80
2022/11/03 02:27:31;;;;;;;6.03;4.27;;;;;;;10.67;73.89;95920.81;5055298;28;20197;-80
2022/11/03 02:29:58;;;;;;;5.27;4.30;;;;;;;10.59;73.29;95926.78;5041065;28;20221;-81
2022/11/03 02:32:28;;;;;;;7.87;4.63;;;;;;;10.59;73.26;95924.22;5036321;28;20232;-79
2022/11/03 02:35:02;;;;;;;6.37;4.67;;;;;;;10.55;73.16;95925.56;5037052;28;20555;-80
2022/11/03 02:37:32;;;;;;;5.83;4.93;;;;;;;10.55;73.17;95919.59;5037227;28;20734;-80
2022/11/03 02:40:04;;;;;;;9.03;4.47;;;;;;;10.55;73.17;95912.69;5036600;28;20226;-79
2022/11/03 02:42:33;;;;;;;8.67;4.93;;;;;;;10.56;73.36;95910.91;5035947;28;20202;-80
2022/11/03 02:45:04;;;;;;;7.13;5.10;;;;;;;10.58;73.25;95909.75;5036920;28;20202;-80
2022/11/03 02:47:31;;;;;;;6.77;5.37;;;;;;;10.60;72.58;95907.81;5039804;28;20297;-78
2022/11/03 02:49:58;;;;;;;7.00;4.80;;;;;;;10.51;72.61;95903.69;5038867;28;20229;-79
2022/11/03 02:52:37;;;;;;;7.73;4.80;;;;;;;10.43;72.62;95898.56;5037306;28;20241;-80
2022/11/03 02:55:10;;;;;;;7.90;4.70;;;;;;;10.24;73.27;95893.81;5036181;28;20202;-79
2022/11/03 02:57:44;;;;;;;5.83;4.20;;;;;;;10.19;73.93;95894.31;5037058;28;20205;-79
2022/11/03 03:00:12;;;;;;;6.63;4.17;;;;;;;10.17;74.01;95875.66;5035772;28;20234;-81
2022/11/03 03:02:45;;;;;;;5.27;3.87;;;;;;;10.23;73.98;95874.97;5036729;28;20840;-82
2022/11/03 03:05:18;;;;;;;6.13;4.07;;;;;;;10.19;74.34;95868.59;5037513;28;20206;-79
2022/11/03 03:07:49;;;;;;;7.67;4.57;;;;;;;10.20;73.89;95870.16;5048237;28;20194;-81
2022/11/03 03:10:19;;;;;;;5.77;4.40;;;;;;;10.25;73.71;95864.53;5055638;28;20218;-79
2022/11/03 03:12:52;;;;;;;6.63;4.43;;;;;;;10.30;73.88;95868.22;5055668;28;20587;-80
2022/11/03 03:15:27;;;;;;;6.50;4.10;;;;;;;10.31;74.06;95861.28;5056110;28;20557;-80
2022/11/03 03:18:01;;;;;;;5.07;3.87;;;;;;;10.23;73.72;95851.03;5055979;28;20281;-80
2022/11/03 03:20:33;;;;;;;4.40;3.50;;;;;;;10.18;74.00;95848.16;5055570;28;20232;-79
2022/11/03 03:23:07;;;;;;;5.30;4.30;;;;;;;10.10;73.83;95848.16;5055844;28;20201;-79
2022/11/03 03:25:37;;;;;;;4.67;3.87;;;;;;;10.18;73.60;95848.94;5056040;28;20206;-80
2022/11/03 03:28:09;;;;;;;5.53;4.23;;;;;;;10.17;73.95;95841.38;5054437;28;20209;-80
2022/11/03 03:30:37;;;;;;;4.30;3.60;;;;;;;10.16;73.92;95843.16;5054710;28;20213;-79
2022/11/03 03:33:07;;;;;;;5.80;4.00;;;;;;;10.19;73.72;95840.28;5055810;28;20205;-79
2022/11/03 03:35:37;;;;;;;6.10;3.70;;;;;;;10.22;73.60;95839.94;5055371;28;20189;-80
2022/11/03 03:38:11;;;;;;;5.77;3.93;;;;;;;10.28;73.33;95851.34;5055096;28;20756;-80
2022/11/03 03:40:41;;;;;;;6.90;3.60;;;;;;;10.34;72.76;95859.19;5055524;28;20225;-79
2022/11/03 03:43:11;;;;;;;4.87;3.37;;;;;;;10.40;72.22;95852.56;5054526;28;20205;-81
2022/11/03 03:45:38;;;;;;;3.90;3.37;;;;;;;10.35;72.39;95853.06;5055703;28;20197;-79
2022/11/03 03:48:07;;;;;;;3.87;3.33;;;;;;;10.34;71.98;95851.47;5055384;28;20197;-79
2022/11/03 03:50:37;;;;;;;6.40;3.47;;;;;;;10.23;72.00;95851.03;5054652;28;20228;-80
2022/11/03 03:53:06;;;;;;;4.57;3.67;;;;;;;10.25;72.50;95851.66;5055251;28;20212;-80
2022/11/03 03:55:36;;;;;;;5.30;3.50;;;;;;;10.26;72.56;95841.19;5054845;28;20554;-79
2022/11/03 03:58:03;;;;;;;5.67;3.60;;;;;;;10.20;72.02;95841.09;5055796;28;20696;-80
2022/11/03 04:00:31;;;;;;;7.93;3.50;;;;;;;9.99;73.12;95844.19;5055623;28;20236;-80
2022/11/03 04:02:58;;;;;;;6.10;3.37;;;;;;;9.85;73.60;95837.16;5052705;28;20210;-79
2022/11/03 04:05:24;;;;;;;5.33;3.77;;;;;;;9.70;74.26;95837.84;5049066;28;20198;-79
2022/11/03 04:07:51;;;;;;;8.87;4.30;;;;;;;9.79;74.00;95824.97;5055589;28;20615;-80
2022/11/03 04:10:20;;;;;;;5.03;3.80;;;;;;;9.81;73.82;95826.41;5054851;28;20228;-80
2022/11/03 04:23:46;;;;;;;6.83;3.50;;;;;;;10.09;73.25;95815.69;5054797;28;20277;-80
2022/11/03 04:26:15;;;;;;;5.43;3.70;;;;;;;9.99;72.82;95809.00;5054544;28;20210;-80
2022/11/03 04:28:42;;;;;;;6.70;3.60;;;;;;;9.93;72.88;95804.50;5048513;28;20194;-80
2022/11/03 04:31:12;;;;;;;4.07;3.63;;;;;;;9.90;73.01;95796.31;5034218;28;20230;-80
2022/11/03 04:33:40;;;;;;;8.40;3.80;;;;;;;9.79;73.29;95800.06;5034538;28;20569;-80
2022/11/03 04:36:13;;;;;;;4.97;3.90;;;;;;;9.70;74.20;95794.13;5043846;28;20202;-80
2022/11/03 04:38:39;;;;;;;5.00;4.20;;;;;;;9.75;74.22;95797.97;5053959;28;20229;-81
2022/11/03 04:41:14;;;;;;;7.13;3.77;;;;;;;9.82;73.85;95798.91;5053907;28;20229;-79
2022/11/03 04:43:42;;;;;;;4.90;4.00;;;;;;;9.65;74.10;95793.81;5053470;28;20207;-79
2022/11/03 04:46:11;;;;;;;6.93;3.57;;;;;;;9.60;74.24;95796.09;5053346;28;20271;-79
2022/11/03 04:48:38;;;;;;;6.33;4.10;;;;;;;9.46;74.94;95783.91;5054161;28;20197;-80
2022/11/03 04:51:14;;;;;;;7.03;3.60;;;;;;;9.51;74.72;95779.09;5054059;28;20724;-80
2022/11/03 04:53:45;;;;;;;5.17;3.73;;;;;;;9.60;74.75;95780.69;5054648;28;20331;-80
2022/11/03 04:56:15;;;;;;;4.97;3.37;;;;;;;9.69;74.00;95779.66;5054412;28;20208;-80
2022/11/03 04:58:42;;;;;;;5.53;3.70;;;;;;;9.63;74.12;95787.22;5053482;28;20300;-81
2022/11/03 05:01:12;;;;;;;3.77;3.43;;;;;;;9.70;73.92;95783.84;5046518;28;20224;-80
2022/11/03 05:03:40;;;;;;;5.23;3.73;;;;;;;9.74;73.19;95768.91;5055070;28;20206;-81
2022/11/03 05:06:14;;;;;;;5.33;3.47;;;;;;;9.78;72.66;95765.03;5054998;28;20205;-80
2022/11/03 05:08:41;;;;;;;4.90;3.50;;;;;;;9.74;72.46;95753.47;5059559;28;20551;-80
2022/11/03 05:11:18;;;;;;;4.37;3.77;;;;;;;9.66;72.57;95751.72;5058108;28;20804;-79
2022/11/03 05:13:45;;;;;;;5.03;3.97;;;;;;;9.57;72.85;95746.78;5058346;28;20197;-79
2022/11/03 05:16:13;;;;;;;7.17;4.00;;;;;;;9.49;73.49;95747.59;5058514;28;20205;-80
2022/11/03 05:18:44;;;;;;;6.83;3.60;;;;;;;9.58;73.12;95756.09;5058101;28;20232;-81
2022/11/03 05:21:15;;;;;;;6.83;4.10;;;;;;;9.62;72.40;95747.09;5058784;28;20217;-80
2022/11/03 05:23:47;;;;;;;4.80;3.73;;;;;;;9.65;72.66;95751.88;5058823;28;20197;-80
2022/11/03 05:26:18;;;;;;;4.97;3.63;;;;;;;9.71;72.59;95746.09;5059320;28;20208;-82
2022/11/03 05:28:49;;;;;;;4.93;3.97;;;;;;;9.77;71.97;95742.84;5052497;28;20194;-80
2022/11/03 05:31:22;;;;;;;5.90;3.30;;;;;;;9.71;71.85;95740.94;5039621;28;20226;-81
2022/11/03 05:33:51;;;;;;;4.77;3.73;;;;;;;9.65;72.10;95741.59;5038846;28;20210;-80
2022/11/03 05:36:21;;;;;;;5.53;3.77;;;;;;;9.66;72.52;95731.16;5048768;28;20216;-80
2022/11/03 05:38:47;;;;;;;5.60;4.27;;;;;;;9.57;72.09;95728.78;5058560;28;20221;-80
2022/11/03 05:41:19;;;;;;;5.60;4.03;;;;;;;9.49;72.46;95723.66;5058071;28;20233;-80
2022/11/03 05:43:52;;;;;;;7.03;4.57;;;;;;;9.47;72.61;95728.16;5058313;28;20198;-80
2022/11/03 05:46:20;;;;;;;7.03;4.77;;;;;;;9.51;72.94;95716.59;5057947;28;20198;-80
2022/11/03 05:48:49;;;;;;;7.20;4.37;;;;;;;9.54;73.00;95711.94;5058039;28;20208;-80
2022/11/03 05:51:21;;;;;;;5.47;4.23;;;;;;;9.61;72.47;95709.50;5057954;28;20222;-82
2022/11/03 05:53:51;;;;;;;5.60;4.30;;;;;;;9.68;72.37;95703.50;5057473;28;20212;-80
2022/11/03 05:56:20;;;;;;;5.87;3.90;;;;;;;9.46;73.52;95708.56;5051953;28;20194;-80
2022/11/03 05:58:48;;;;;;;7.27;4.63;;;;;;;9.39;74.42;95710.22;5055105;28;20221;-80
2022/11/03 06:01:23;;;;;;;7.57;4.40;;;;;;;9.48;74.05;95711.78;5057305;28;20221;-80
2022/11/03 06:03:50;;;;;;;5.67;4.67;;;;;;;9.56;74.18;95707.44;5058260;28;20201;-80
2022/11/03 06:06:20;;;;;;;5.90;4.90;;;;;;;9.60;74.63;95701.00;5058496;28;20297;-80
2022/11/03 06:08:48;;;;;;;6.87;5.30;;;;;;;9.66;75.14;95707.22;5056946;28;20197;-80
2022/11/03 06:11:25;;;;;;;8.97;5.07;;;;;;;9.63;74.83;95705.78;5059072;28;20252;-79
2022/11/03 06:13:52;;;;;;;6.90;5.27;;;;;;;9.70;74.35;95701.56;5090027;22;20289;-83
2022/11/03 06:16:37;;;;;;;6.20;5.17;;;;;;;9.74;75.08;95699.47;5074434;28;20201;-82
2022/11/03 06:19:17;;;;;;;6.57;5.70;;;;;;;9.82;75.95;95696.84;5074358;28;20272;-82
2022/11/03 06:21:44;;;;;;;28.43;10.20;;;;;;;9.64;86.52;95709.16;5074209;28;20196;-82
2022/11/03 06:24:13;;;;;;;15.90;7.50;;;;;;;9.62;86.04;95714.44;5073649;28;20225;-82
2022/11/03 06:26:41;;;;;;;8.47;6.53;;;;;;;9.56;81.85;95716.91;5073911;28;20252;-82
2022/11/03 06:29:14;;;;;;;8.27;5.97;;;;;;;9.52;82.26;95713.06;5072980;28;20193;-82
2022/11/03 06:31:43;;;;;;;7.73;5.83;;;;;;;9.64;79.07;95709.94;5073908;28;20368;-81
2022/11/03 06:34:22;;;;;;;48.23;35.53;;;;;;;9.67;78.44;95711.38;5073678;28;20223;-81
2022/11/03 06:36:48;;;;;;;13.17;9.53;;;;;;;9.74;76.72;95709.75;5073828;28;20311;-81
2022/11/03 06:39:21;;;;;;;9.37;7.07;;;;;;;9.78;76.52;95712.78;5074213;28;20243;-82
2022/11/03 06:41:47;;;;;;;10.07;6.17;;;;;;;9.92;75.60;95701.78;5073650;28;20690;-81
2022/11/03 06:44:23;;;;;;;9.40;6.00;;;;;;;9.98;75.20;95699.34;5073893;28;20225;-82
2022/11/03 06:46:51;;;;;;;7.77;5.80;;;;;;;9.93;75.84;95693.09;5074042;28;20207;-82
2022/11/03 06:49:33;;;;;;;7.10;6.00;;;;;;;9.87;77.05;95693.78;5073243;28;20204;-82
2022/11/03 06:52:05;;;;;;;7.10;6.20;;;;;;;9.73;78.18;95689.34;5064201;28;20204;-83
2022/11/03 06:54:32;;;;;;;7.23;6.53;;;;;;;9.68;78.78;95700.13;5069447;28;20228;-82
2022/11/03 06:56:59;;;;;;;6.90;6.20;;;;;;;9.74;78.51;95699.47;5073175;28;20197;-82
2022/11/03 06:59:26;;;;;;;7.97;6.17;;;;;;;9.79;78.37;95701.53;5073123;28;20228;-82
2022/11/03 07:01:55;;;;;;;7.60;6.80;;;;;;;9.77;78.36;95694.00;5073044;28;20201;-83
2022/11/03 07:04:23;;;;;;;9.30;7.03;;;;;;;9.83;78.70;95687.34;5072514;28;20224;-81
2022/11/03 07:06:50;;;;;;;9.40;7.17;;;;;;;9.90;78.43;95683.94;5072580;28;20209;-82
2022/11/03 07:09:21;;;;;;;8.87;6.87;;;;;;;9.91;78.39;95684.75;5072988;28;20196;-83
2022/11/03 07:11:50;;;;;;;8.43;7.00;;;;;;;9.88;78.52;95680.75;5072795;28;20259;-81
2022/11/03 07:14:21;;;;;;;10.97;7.10;;;;;;;9.83;79.10;95679.66;5072764;28;20235;-82
2022/11/03 07:16:50;;;;;;;11.23;7.17;;;;;;;9.84;79.07;95676.91;5061584;28;20193;-81
2022/11/03 07:19:22;;;;;;;10.80;7.23;;;;;;;9.82;79.72;95665.19;5052027;28;20221;-81
2022/11/03 07:21:51;;;;;;;8.47;7.30;;;;;;;9.92;79.03;95669.16;5052319;28;20201;-82
2022/11/03 07:24:21;;;;;;;11.67;7.93;;;;;;;9.85;80.17;95675.13;5052526;28;20228;-83
2022/11/03 07:26:47;;;;;;;11.60;8.13;;;;;;;9.63;82.88;95677.50;5052511;28;20213;-82
2022/11/03 07:29:20;;;;;;;9.77;8.13;;;;;;;9.79;81.46;95675.84;5059847;28;20197;-81
2022/11/03 07:31:46;;;;;;;11.37;7.67;;;;;;;10.00;80.21;95676.84;5071972;28;20208;-83
2022/11/03 07:34:19;;;;;;;12.73;8.57;;;;;;;10.12;79.44;95669.50;5072405;28;20775;-83
2022/11/03 07:36:48;;;;;;;10.13;7.73;;;;;;;10.23;78.88;95668.31;5071963;28;20584;-81
2022/11/03 07:39:18;;;;;;;10.10;7.93;;;;;;;10.39;78.31;95671.56;5071456;28;20248;-81
2022/11/03 07:41:44;;;;;;;10.13;7.60;;;;;;;10.68;77.99;95675.22;5071516;28;20205;-81
2022/11/03 07:44:15;;;;;;;18.43;7.80;;;;;;;11.03;76.15;95666.03;5071905;28;20591;-83
2022/11/03 07:46:45;;;;;;;8.40;6.97;;;;;;;11.50;74.04;95673.41;5068659;28;20811;-82
2022/11/03 07:49:24;;;;;;;8.20;6.63;;;;;;;11.93;72.03;95665.78;5062672;28;20196;-82
2022/11/03 07:51:53;;;;;;;7.40;6.60;;;;;;;12.27;70.51;95668.50;5071691;28;20197;-82
2022/11/03 07:54:22;;;;;;;8.17;7.07;;;;;;;12.59;69.88;95656.84;5071709;28;20227;-82
2022/11/03 07:56:55;;;;;;;18.93;14.67;;;;;;;12.92;68.15;95636.41;5072703;28;20500;-82
2022/11/03 07:59:23;;;;;;;10.73;9.63;;;;;;;13.08;67.74;95637.91;5071212;28;20221;-83
2022/11/03 08:01:53;;;;;;;11.03;9.70;;;;;;;13.06;66.41;95627.75;5071341;28;20193;-82
2022/11/03 08:04:21;;;;;;;6.93;6.23;;;;;;;13.09;66.40;95621.38;5071493;28;20221;-81
2022/11/03 08:06:49;;;;;;;8.47;6.80;;;;;;;13.17;66.76;95613.50;5072331;28;20730;-84
2022/11/03 08:09:17;;;;;;;7.53;6.30;;;;;;;13.38;65.13;95610.03;5070674;28;20279;-81
2022/11/03 08:11:44;;;;;;;7.87;5.70;;;;;;;13.58;65.19;95604.94;5071995;28;20200;-82
2022/11/03 08:14:11;;;;;;;7.63;5.90;;;;;;;13.63;65.15;95598.19;5071535;28;20228;-82
2022/11/03 08:16:38;;;;;;;6.53;5.70;;;;;;;13.73;64.71;95597.81;5071657;28;20668;-82
2022/11/03 08:19:05;;;;;;;8.50;5.60;;;;;;;13.77;65.09;95588.66;5071771;28;20196;-82
2022/11/03 08:21:32;;;;;;;7.77;5.77;;;;;;;13.62;63.82;95582.84;5071471;28;20586;-80
2022/11/03 08:23:58;;;;;;;11.87;6.10;;;;;;;13.89;64.90;95581.09;5071977;28;20708;-84
2022/11/03 08:26:26;;;;;;;5.60;5.10;;;;;;;13.66;63.83;95576.31;5071406;28;20284;-83
2022/11/03 08:28:52;;;;;;;9.70;5.77;;;;;;;13.57;64.71;95578.25;5070020;28;20197;-82
2022/11/03 08:31:19;;;;;;;7.72;5.20;;;;;;;13.73;64.30;95571.94;5070859;28;20197;-81
2022/11/03 08:33:46;;;;;;;7.90;5.47;;;;;;;14.00;64.89;95568.41;5071247;28;20220;-82
2022/11/03 08:36:12;;;;;;;5.75;4.70;;;;;;;13.98;64.07;95564.41;5071273;28;20208;-82
2022/11/03 08:38:38;;;;;;;5.63;4.80;;;;;;;13.93;64.10;95557.22;5073154;28;20207;-81
2022/11/03 08:41:05;;;;;;;5.15;4.65;;;;;;;14.21;62.96;95554.47;5072011;28;20228;-82
2022/11/03 08:43:33;;;;;;;6.75;4.60;;;;;;;14.35;62.04;95558.63;5074660;28;20220;-82
2022/11/03 08:46:00;;;;;;;7.57;5.05;;;;;;;14.31;61.40;95552.25;5066802;28;20204;-82
2022/11/03 08:48:27;;;;;;;5.10;4.22;;;;;;;14.23;61.66;95549.09;5075928;28;20196;-83
2022/11/03 08:50:54;;;;;;;7.47;4.68;;;;;;;14.22;62.71;95561.25;5075576;28;20201;-83
2022/11/03 08:53:22;;;;;;;5.30;4.28;;;;;;;14.34;62.64;95546.69;5075937;28;20768;-81
2022/11/03 08:55:48;;;;;;;22.33;19.83;;;;;;;14.32;63.03;95545.28;5076301;28;20200;-82
2022/11/03 08:58:15;;;;;;;36.33;27.50;;;;;;;14.61;62.99;95538.91;5075649;28;20203;-81
2022/11/03 09:00:43;;;;;;;17.63;14.65;;;;;;;14.87;62.19;95528.47;5075180;28;20255;-84
2022/11/03 09:03:10;;;;;;;6.90;5.22;;;;;;;14.98;60.21;95525.25;5074995;28;20228;-82
2022/11/03 09:05:36;;;;;;;6.53;4.47;;;;;;;15.09;59.78;95531.59;5075161;28;20711;-83
2022/11/03 09:08:03;;;;;;;5.32;4.28;;;;;;;15.20;59.55;95520.59;5075447;28;20203;-82
2022/11/03 09:10:30;;;;;;;4.78;4.38;;;;;;;15.28;59.87;95522.94;5074965;28;20208;-83
2022/11/03 09:12:57;;;;;;;4.75;4.25;;;;;;;15.20;59.63;95523.19;5073847;28;20248;-82
2022/11/03 09:15:28;;;;;;;4.80;4.32;;;;;;;15.20;58.92;95510.22;5073761;28;20209;-81
2022/11/03 09:17:55;;;;;;;5.38;4.45;;;;;;;15.25;58.77;95510.38;5075447;28;20201;-81
2022/11/03 09:20:22;;;;;;;6.38;4.28;;;;;;;15.14;59.26;95496.25;5074917;28;20739;-83
2022/11/03 09:22:49;;;;;;;7.88;4.72;;;;;;;15.20;59.88;95492.81;5075315;28;20605;-85
2022/11/03 09:25:16;;;;;;;7.10;4.05;;;;;;;15.32;58.86;95482.59;5074848;28;20201;-82
2022/11/03 09:27:42;;;;;;;4.53;3.97;;;;;;;15.45;58.99;95479.91;5073995;28;20200;-83
2022/11/03 09:30:09;;;;;;;6.38;4.13;;;;;;;15.39;59.25;95485.16;5074418;28;20204;-83
2022/11/03 09:32:36;;;;;;;5.75;4.28;;;;;;;15.53;59.42;95479.69;5075113;28;20259;-82
2022/11/03 09:35:05;;;;;;;4.85;4.20;;;;;;;15.69;58.92;95481.00;5075246;28;20212;-83
2022/11/03 09:37:32;;;;;;;4.55;3.97;;;;;;;15.80;58.43;95477.72;5074448;28;20205;-83
2022/11/03 09:39:58;;;;;;;7.00;4.15;;;;;;;15.97;58.14;95487.59;5074828;28;20317;-82
2022/11/03 09:42:25;;;;;;;6.10;3.63;;;;;;;15.97;57.58;95480.56;5064915;28;20196;-82
2022/11/03 09:44:53;;;;;;;5.05;3.83;;;;;;;15.98;57.47;95483.97;5054638;28;20590;-83
2022/11/03 09:47:23;;;;;;;7.55;4.20;;;;;;;16.06;56.87;95483.72;5054054;28;20613;-82
2022/11/03 09:49:50;;;;;;;6.60;3.72;;;;;;;16.10;56.52;95477.09;5053682;28;20296;-82
2022/11/03 09:52:22;;;;;;;4.70;3.63;;;;;;;15.94;56.88;95472.44;5052773;28;20566;-82
2022/11/03 09:54:48;;;;;;;6.53;4.47;;;;;;;15.80;57.41;95469.94;5054058;28;20202;-82
2022/11/03 09:57:16;;;;;;;36.60;30.25;;;;;;;15.95;57.77;95468.84;5054382;28;20755;-81
2022/11/03 09:59:44;;;;;;;11.32;7.97;;;;;;;15.90;57.34;95464.28;5054333;28;20208;-83
2022/11/03 10:02:21;;;;;;;4.85;3.78;;;;;;;15.83;57.35;95451.34;5054724;28;20198;-84
2022/11/03 10:04:48;;;;;;;4.25;3.60;;;;;;;15.69;57.20;95457.63;5054529;28;20288;-82
2022/11/03 10:07:15;;;;;;;5.15;4.05;;;;;;;15.79;57.99;95444.19;5053816;28;20209;-83
2022/11/03 10:09:46;;;;;;;7.43;4.38;;;;;;;15.81;57.99;95439.56;5053619;28;20228;-82
2022/11/03 10:12:13;;;;;;;7.15;4.40;;;;;;;15.80;58.06;95435.38;5053347;28;20197;-83
2022/11/03 10:14:40;;;;;;;4.85;3.90;;;;;;;15.84;58.44;95426.16;5053378;28;20208;-83
2022/11/03 10:17:06;;;;;;;7.70;4.25;;;;;;;15.86;57.32;95431.94;5053980;28;20197;-83
2022/11/03 10:19:33;;;;;;;7.43;4.32;;;;;;;16.05;58.16;95428.38;5053216;28;20716;-82
2022/11/03 10:21:59;;;;;;;7.00;6.30;;;;;;;16.23;59.44;95427.59;5053509;28;20665;-84
2022/11/03 10:24:26;;;;;;;9.55;6.78;;;;;;;16.36;59.14;95419.66;5052639;28;20217;-83
2022/11/03 10:26:54;;;;;;;10.52;8.25;;;;;;;16.41;59.03;95412.03;5052832;28;20673;-82
2022/11/03 10:29:22;;;;;;;14.15;7.82;;;;;;;16.49;59.33;95413.56;5062633;28;20224;-82
2022/11/03 10:31:50;;;;;;;9.40;8.02;;;;;;;16.53;59.77;95404.31;5072414;28;20201;-85
2022/11/03 10:34:26;;;;;;;11.10;8.55;;;;;;;16.70;59.35;95414.94;5072692;28;20246;-83
2022/11/03 10:37:09;;;;;;;11.60;8.40;;;;;;;16.73;59.11;95399.72;5070130;28;20206;-83
2022/11/03 10:39:36;;;;;;;9.90;8.90;;;;;;;16.71;59.63;95409.53;5069234;28;20204;-83
2022/11/03 10:42:04;;;;;;;9.55;8.57;;;;;;;16.59;59.13;95404.22;5072898;28;20220;-83
2022/11/03 10:44:31;;;;;;;11.07;9.30;;;;;;;16.65;59.63;95407.78;5073245;28;20225;-82
2022/11/03 10:46:59;;;;;;;12.10;8.70;;;;;;;16.65;59.82;95394.78;5073106;28;20203;-82
2022/11/03 10:49:28;;;;;;;10.00;8.18;;;;;;;16.73;59.71;95394.50;5073235;28;20204;-82
2022/11/03 10:52:04;;;;;;;11.77;8.60;;;;;;;16.83;59.84;95391.38;5072617;28;20730;-83
2022/11/03 10:54:31;;;;;;;70.28;56.92;;;;;;;16.77;59.54;95385.22;5072949;28;20247;-82
2022/11/03 10:56:58;;;;;;;23.58;21.02;;;;;;;16.71;63.79;95386.13;5073197;28;20212;-82
2022/11/03 10:59:32;;;;;;;13.95;12.55;;;;;;;16.68;62.03;95383.97;5072834;28;20223;-83
2022/11/03 11:01:59;;;;;;;10.70;9.20;;;;;;;16.75;61.28;95382.06;5073201;28;20695;-84
2022/11/03 11:04:26;;;;;;;10.25;9.20;;;;;;;16.86;60.77;95376.13;5071975;28;20220;-83
2022/11/03 11:06:52;;;;;;;9.38;8.48;;;;;;;16.86;60.32;95373.53;5072428;28;20672;-83
2022/11/03 11:09:24;;;;;;;9.77;8.60;;;;;;;16.88;60.35;95370.72;5073108;28;20201;-83
2022/11/03 11:12:04;;;;;;;9.48;8.20;;;;;;;16.88;59.98;95366.31;5071907;28;20227;-81
2022/11/03 11:14:38;;;;;;;9.25;7.85;;;;;;;16.88;59.21;95371.50;5072236;28;20231;-82
2022/11/03 11:17:05;;;;;;;10.35;7.97;;;;;;;16.86;59.50;95378.72;5072263;28;20200;-83
2022/11/03 11:20:09;;;;;;;8.27;7.43;;;;;;;16.73;59.13;95378.13;5071691;28;20193;-83
2022/11/03 11:22:36;;;;;;;31.00;27.42;;;;;;;16.90;59.54;95374.69;5071445;28;20235;-82
2022/11/03 11:25:03;;;;;;;17.83;14.90;;;;;;;17.05;59.41;95378.69;5071726;28;20720;-84
2022/11/03 11:28:05;;;;;;;9.98;8.57;;;;;;;17.04;59.03;95382.28;5071224;28;20201;-81
2022/11/03 11:31:23;;;;;;;8.55;7.75;;;;;;;17.01;59.23;95374.94;5049652;28;20669;-83
2022/11/03 11:33:50;;;;;;;8.48;7.63;;;;;;;17.10;59.14;95373.59;5061722;28;20238;-83
2022/11/03 11:36:23;;;;;;;10.82;7.65;;;;;;;17.17;59.53;95369.09;5071675;28;20548;-82
2022/11/03 11:39:00;;;;;;;8.38;7.30;;;;;;;17.26;59.32;95359.97;5071820;28;20204;-83
2022/11/03 11:42:04;;;;;;;7.88;7.05;;;;;;;17.26;58.98;95360.75;5071840;28;20251;-82
2022/11/03 11:45:02;;;;;;;8.25;7.45;;;;;;;17.24;58.89;95349.78;5071411;28;20254;-81
2022/11/03 11:47:48;;;;;;;9.43;8.20;;;;;;;17.23;58.82;95348.19;5060076;28;20275;-83
2022/11/03 11:50:24;;;;;;;7.72;7.03;;;;;;;17.22;58.79;95338.78;5071370;28;20212;-83
2022/11/03 11:52:56;;;;;;;8.25;7.40;;;;;;;17.07;59.96;95338.44;5072911;28;20219;-84
2022/11/03 11:55:31;;;;;;;8.63;7.75;;;;;;;16.70;61.08;95334.34;5071718;28;20284;-83
2022/11/03 11:57:59;;;;;;;8.38;7.57;;;;;;;16.51;61.92;95331.75;5072066;28;20777;-83
2022/11/03 12:00:27;;;;;;;9.23;7.70;;;;;;;16.55;61.39;95332.09;5071229;28;20594;-82
2022/11/03 12:02:55;;;;;;;7.90;7.10;;;;;;;16.66;61.03;95326.19;5071472;28;20228;-83